sensor_id;sensor_type;location;lat;lon;timestamp;P1;durP1;ratioP1;P2;durP2;ratioP2
77417;SDS011;66490;51.484;0.026;2023-06-10T00:00:45;21.05;;;8.90;;
77417;SDS011;66490;51.484;0.026;2023-06-10T00:03:40;18.92;;;9.35;;
77417;SDS011;66490;51.484;0.026;2023-06-10T00:06:34;24.30;;;9.35;;
77417;SDS011;66490;51.484;0.026;2023-06-10T00:09:21;25.50;;;9.45;;
77417;SDS011;66490;51.484;0.026;2023-06-10T00:12:06;21.43;;;8.70;;
77417;SDS011;66490;51.484;0.026;2023-06-10T00:14:56;22.50;;;8.80;;
77417;SDS011;66490;51.484;0.026;2023-06-10T00:17:49;22.88;;;9.20;;
77417;SDS011;66490;51.484;0.026;2023-06-10T00:20:36;22.38;;;9.10;;
77417;SDS011;66490;51.484;0.026;2023-06-10T00:23:21;22.92;;;9.27;;
77417;SDS011;66490;51.484;0.026;2023-06-10T00:26:14;22.13;;;9.67;;
77417;SDS011;66490;51.484;0.026;2023-06-10T00:28:59;21.60;;;8.77;;
77417;SDS011;66490;51.484;0.026;2023-06-10T00:31:44;22.75;;;9.90;;
77417;SDS011;66490;51.484;0.026;2023-06-10T00:34:29;23.85;;;9.45;;
77417;SDS011;66490;51.484;0.026;2023-06-10T00:37:15;18.65;;;8.52;;
77417;SDS011;66490;51.484;0.026;2023-06-10T00:40:00;23.33;;;8.97;;
77417;SDS011;66490;51.484;0.026;2023-06-10T00:43:01;20.40;;;8.73;;
77417;SDS011;66490;51.484;0.026;2023-06-10T00:45:48;17.70;;;8.80;;
77417;SDS011;66490;51.484;0.026;2023-06-10T00:48:35;24.67;;;8.90;;
77417;SDS011;66490;51.484;0.026;2023-06-10T00:51:19;22.70;;;9.63;;
77417;SDS011;66490;51.484;0.026;2023-06-10T00:54:06;19.00;;;9.30;;
77417;SDS011;66490;51.484;0.026;2023-06-10T00:56:51;20.15;;;8.32;;
77417;SDS011;66490;51.484;0.026;2023-06-10T00:59:35;17.77;;;9.05;;
77417;SDS011;66490;51.484;0.026;2023-06-10T01:02:19;21.67;;;7.85;;
77417;SDS011;66490;51.484;0.026;2023-06-10T01:05:04;22.17;;;9.07;;
77417;SDS011;66490;51.484;0.026;2023-06-10T01:07:56;21.83;;;9.43;;
77417;SDS011;66490;51.484;0.026;2023-06-10T01:10:45;21.90;;;9.35;;
77417;SDS011;66490;51.484;0.026;2023-06-10T01:13:37;23.50;;;9.43;;
77417;SDS011;66490;51.484;0.026;2023-06-10T01:16:23;23.60;;;9.15;;
77417;SDS011;66490;51.484;0.026;2023-06-10T01:19:13;21.30;;;9.63;;
77417;SDS011;66490;51.484;0.026;2023-06-10T01:22:00;23.60;;;10.03;;
77417;SDS011;66490;51.484;0.026;2023-06-10T01:24:44;30.33;;;9.75;;
77417;SDS011;66490;51.484;0.026;2023-06-10T01:27:32;23.08;;;8.98;;
77417;SDS011;66490;51.484;0.026;2023-06-10T01:30:21;21.35;;;9.38;;
77417;SDS011;66490;51.484;0.026;2023-06-10T01:33:09;22.38;;;8.88;;
77417;SDS011;66490;51.484;0.026;2023-06-10T01:35:56;26.37;;;10.10;;
77417;SDS011;66490;51.484;0.026;2023-06-10T01:38:43;23.90;;;9.18;;
77417;SDS011;66490;51.484;0.026;2023-06-10T01:41:27;27.77;;;10.50;;
77417;SDS011;66490;51.484;0.026;2023-06-10T01:44:20;19.85;;;9.05;;
77417;SDS011;66490;51.484;0.026;2023-06-10T01:47:06;24.45;;;9.60;;
77417;SDS011;66490;51.484;0.026;2023-06-10T01:49:52;23.60;;;8.77;;
77417;SDS011;66490;51.484;0.026;2023-06-10T01:52:36;18.02;;;8.55;;
77417;SDS011;66490;51.484;0.026;2023-06-10T01:55:20;19.73;;;8.10;;
77417;SDS011;66490;51.484;0.026;2023-06-10T01:58:04;27.10;;;9.70;;
77417;SDS011;66490;51.484;0.026;2023-06-10T02:00:48;29.27;;;9.98;;
77417;SDS011;66490;51.484;0.026;2023-06-10T02:03:32;21.40;;;9.10;;
77417;SDS011;66490;51.484;0.026;2023-06-10T02:06:16;22.88;;;8.90;;
77417;SDS011;66490;51.484;0.026;2023-06-10T02:09:01;24.45;;;10.07;;
77417;SDS011;66490;51.484;0.026;2023-06-10T02:11:46;22.40;;;9.90;;
77417;SDS011;66490;51.484;0.026;2023-06-10T02:14:31;19.58;;;8.95;;
77417;SDS011;66490;51.484;0.026;2023-06-10T02:17:16;25.93;;;10.20;;
77417;SDS011;66490;51.484;0.026;2023-06-10T02:20:00;22.63;;;8.63;;
77417;SDS011;66490;51.484;0.026;2023-06-10T02:22:47;20.58;;;9.45;;
77417;SDS011;66490;51.484;0.026;2023-06-10T02:25:31;30.33;;;10.02;;
77417;SDS011;66490;51.484;0.026;2023-06-10T02:28:16;21.45;;;10.27;;
77417;SDS011;66490;51.484;0.026;2023-06-10T02:31:00;23.20;;;8.27;;
77417;SDS011;66490;51.484;0.026;2023-06-10T02:33:44;19.77;;;8.32;;
77417;SDS011;66490;51.484;0.026;2023-06-10T02:36:28;19.35;;;8.95;;
77417;SDS011;66490;51.484;0.026;2023-06-10T02:39:12;26.10;;;11.65;;
77417;SDS011;66490;51.484;0.026;2023-06-10T02:41:56;23.70;;;10.38;;
77417;SDS011;66490;51.484;0.026;2023-06-10T02:44:40;23.37;;;9.83;;
77417;SDS011;66490;51.484;0.026;2023-06-10T02:47:24;24.35;;;9.80;;
77417;SDS011;66490;51.484;0.026;2023-06-10T02:50:08;25.38;;;9.15;;
77417;SDS011;66490;51.484;0.026;2023-06-10T02:52:52;21.45;;;9.00;;
77417;SDS011;66490;51.484;0.026;2023-06-10T02:55:36;23.00;;;9.38;;
77417;SDS011;66490;51.484;0.026;2023-06-10T02:58:21;26.87;;;10.13;;
77417;SDS011;66490;51.484;0.026;2023-06-10T03:01:08;21.00;;;9.43;;
77417;SDS011;66490;51.484;0.026;2023-06-10T03:03:53;24.67;;;9.50;;
77417;SDS011;66490;51.484;0.026;2023-06-10T03:06:40;26.73;;;10.05;;
77417;SDS011;66490;51.484;0.026;2023-06-10T03:09:29;20.88;;;8.82;;
77417;SDS011;66490;51.484;0.026;2023-06-10T03:12:15;23.17;;;9.87;;
77417;SDS011;66490;51.484;0.026;2023-06-10T03:14:59;21.92;;;9.38;;
77417;SDS011;66490;51.484;0.026;2023-06-10T03:17:44;22.25;;;8.98;;
77417;SDS011;66490;51.484;0.026;2023-06-10T03:20:30;22.50;;;9.57;;
77417;SDS011;66490;51.484;0.026;2023-06-10T03:23:14;22.75;;;10.02;;
77417;SDS011;66490;51.484;0.026;2023-06-10T03:25:59;24.73;;;8.90;;
77417;SDS011;66490;51.484;0.026;2023-06-10T03:28:44;27.45;;;9.38;;
77417;SDS011;66490;51.484;0.026;2023-06-10T03:31:28;23.85;;;9.98;;
77417;SDS011;66490;51.484;0.026;2023-06-10T03:34:13;25.02;;;9.45;;
77417;SDS011;66490;51.484;0.026;2023-06-10T03:36:57;23.27;;;8.85;;
77417;SDS011;66490;51.484;0.026;2023-06-10T03:39:42;24.63;;;10.07;;
77417;SDS011;66490;51.484;0.026;2023-06-10T03:42:26;26.40;;;9.70;;
77417;SDS011;66490;51.484;0.026;2023-06-10T03:45:10;25.70;;;10.85;;
77417;SDS011;66490;51.484;0.026;2023-06-10T03:47:54;25.30;;;10.00;;
77417;SDS011;66490;51.484;0.026;2023-06-10T03:50:39;27.77;;;9.80;;
77417;SDS011;66490;51.484;0.026;2023-06-10T03:53:23;25.97;;;10.07;;
77417;SDS011;66490;51.484;0.026;2023-06-10T03:56:07;23.05;;;8.98;;
77417;SDS011;66490;51.484;0.026;2023-06-10T03:58:52;20.42;;;9.13;;
77417;SDS011;66490;51.484;0.026;2023-06-10T04:01:37;23.20;;;9.57;;
77417;SDS011;66490;51.484;0.026;2023-06-10T04:04:21;21.02;;;9.65;;
77417;SDS011;66490;51.484;0.026;2023-06-10T04:07:05;21.87;;;9.77;;
77417;SDS011;66490;51.484;0.026;2023-06-10T04:09:50;23.35;;;9.52;;
77417;SDS011;66490;51.484;0.026;2023-06-10T04:12:34;20.83;;;9.80;;
77417;SDS011;66490;51.484;0.026;2023-06-10T04:15:21;25.13;;;9.95;;
77417;SDS011;66490;51.484;0.026;2023-06-10T04:18:05;18.77;;;10.30;;
77417;SDS011;66490;51.484;0.026;2023-06-10T04:20:49;26.80;;;9.83;;
77417;SDS011;66490;51.484;0.026;2023-06-10T04:23:33;20.40;;;9.25;;
77417;SDS011;66490;51.484;0.026;2023-06-10T04:26:17;22.42;;;10.55;;
77417;SDS011;66490;51.484;0.026;2023-06-10T04:29:01;18.98;;;8.93;;
77417;SDS011;66490;51.484;0.026;2023-06-10T04:31:46;19.17;;;10.68;;
77417;SDS011;66490;51.484;0.026;2023-06-10T04:34:30;22.70;;;9.50;;
77417;SDS011;66490;51.484;0.026;2023-06-10T04:37:14;16.50;;;9.48;;
77417;SDS011;66490;51.484;0.026;2023-06-10T04:39:58;21.33;;;10.60;;
77417;SDS011;66490;51.484;0.026;2023-06-10T04:42:44;20.70;;;9.82;;
77417;SDS011;66490;51.484;0.026;2023-06-10T04:45:28;25.90;;;10.98;;
77417;SDS011;66490;51.484;0.026;2023-06-10T04:48:13;21.87;;;9.37;;
77417;SDS011;66490;51.484;0.026;2023-06-10T04:50:58;29.83;;;9.93;;
77417;SDS011;66490;51.484;0.026;2023-06-10T04:53:45;24.05;;;10.38;;
77417;SDS011;66490;51.484;0.026;2023-06-10T04:56:30;26.45;;;9.77;;
77417;SDS011;66490;51.484;0.026;2023-06-10T04:59:16;20.67;;;10.32;;
77417;SDS011;66490;51.484;0.026;2023-06-10T05:02:01;22.93;;;10.63;;
77417;SDS011;66490;51.484;0.026;2023-06-10T05:04:45;24.05;;;9.65;;
77417;SDS011;66490;51.484;0.026;2023-06-10T05:07:29;21.73;;;11.38;;
77417;SDS011;66490;51.484;0.026;2023-06-10T05:10:13;22.05;;;10.02;;
77417;SDS011;66490;51.484;0.026;2023-06-10T05:12:57;22.55;;;10.55;;
77417;SDS011;66490;51.484;0.026;2023-06-10T05:15:42;20.53;;;8.77;;
77417;SDS011;66490;51.484;0.026;2023-06-10T05:18:28;22.17;;;9.18;;
77417;SDS011;66490;51.484;0.026;2023-06-10T05:21:12;25.85;;;9.88;;
77417;SDS011;66490;51.484;0.026;2023-06-10T05:23:56;20.27;;;8.95;;
77417;SDS011;66490;51.484;0.026;2023-06-10T05:26:40;24.42;;;10.15;;
77417;SDS011;66490;51.484;0.026;2023-06-10T05:29:25;21.50;;;9.07;;
77417;SDS011;66490;51.484;0.026;2023-06-10T05:32:09;22.95;;;10.10;;
77417;SDS011;66490;51.484;0.026;2023-06-10T05:34:56;23.58;;;11.05;;
77417;SDS011;66490;51.484;0.026;2023-06-10T05:37:40;20.63;;;9.23;;
77417;SDS011;66490;51.484;0.026;2023-06-10T05:40:26;22.88;;;10.05;;
77417;SDS011;66490;51.484;0.026;2023-06-10T05:43:13;24.53;;;9.90;;
77417;SDS011;66490;51.484;0.026;2023-06-10T05:45:58;23.45;;;9.00;;
77417;SDS011;66490;51.484;0.026;2023-06-10T05:48:44;23.95;;;9.43;;
77417;SDS011;66490;51.484;0.026;2023-06-10T05:51:28;22.00;;;10.25;;
77417;SDS011;66490;51.484;0.026;2023-06-10T05:54:15;21.77;;;9.68;;
77417;SDS011;66490;51.484;0.026;2023-06-10T05:56:59;17.90;;;9.33;;
77417;SDS011;66490;51.484;0.026;2023-06-10T05:59:43;22.83;;;9.43;;
77417;SDS011;66490;51.484;0.026;2023-06-10T06:02:54;27.92;;;10.93;;
77417;SDS011;66490;51.484;0.026;2023-06-10T06:05:48;21.42;;;10.48;;
77417;SDS011;66490;51.484;0.026;2023-06-10T06:08:33;20.05;;;8.63;;
77417;SDS011;66490;51.484;0.026;2023-06-10T06:11:20;22.67;;;9.40;;
77417;SDS011;66490;51.484;0.026;2023-06-10T06:14:14;19.17;;;9.07;;
77417;SDS011;66490;51.484;0.026;2023-06-10T06:17:04;23.92;;;9.98;;
77417;SDS011;66490;51.484;0.026;2023-06-10T06:19:48;22.17;;;9.73;;
77417;SDS011;66490;51.484;0.026;2023-06-10T06:22:38;21.73;;;10.15;;
77417;SDS011;66490;51.484;0.026;2023-06-10T06:25:29;22.77;;;10.33;;
77417;SDS011;66490;51.484;0.026;2023-06-10T06:28:21;24.73;;;10.15;;
77417;SDS011;66490;51.484;0.026;2023-06-10T06:31:17;24.60;;;10.68;;
77417;SDS011;66490;51.484;0.026;2023-06-10T06:34:06;22.27;;;11.10;;
77417;SDS011;66490;51.484;0.026;2023-06-10T06:36:58;23.17;;;9.68;;
77417;SDS011;66490;51.484;0.026;2023-06-10T06:39:55;35.70;;;24.50;;
77417;SDS011;66490;51.484;0.026;2023-06-10T06:42:39;38.65;;;27.83;;
77417;SDS011;66490;51.484;0.026;2023-06-10T06:45:23;36.90;;;26.67;;
77417;SDS011;66490;51.484;0.026;2023-06-10T06:48:14;37.35;;;29.85;;
77417;SDS011;66490;51.484;0.026;2023-06-10T06:51:18;34.85;;;29.75;;
77417;SDS011;66490;51.484;0.026;2023-06-10T06:54:05;37.53;;;22.70;;
77417;SDS011;66490;51.484;0.026;2023-06-10T06:56:49;38.38;;;21.73;;
77417;SDS011;66490;51.484;0.026;2023-06-10T06:59:33;26.67;;;13.73;;
77417;SDS011;66490;51.484;0.026;2023-06-10T07:02:20;20.17;;;10.57;;
77417;SDS011;66490;51.484;0.026;2023-06-10T07:05:04;20.45;;;10.13;;
77417;SDS011;66490;51.484;0.026;2023-06-10T07:07:49;19.27;;;9.70;;
77417;SDS011;66490;51.484;0.026;2023-06-10T07:10:41;19.70;;;9.88;;
77417;SDS011;66490;51.484;0.026;2023-06-10T07:13:25;22.52;;;10.23;;
77417;SDS011;66490;51.484;0.026;2023-06-10T07:16:10;17.58;;;8.85;;
77417;SDS011;66490;51.484;0.026;2023-06-10T07:18:54;18.30;;;11.05;;
77417;SDS011;66490;51.484;0.026;2023-06-10T07:21:40;21.50;;;13.33;;
77417;SDS011;66490;51.484;0.026;2023-06-10T07:24:25;21.27;;;11.82;;
77417;SDS011;66490;51.484;0.026;2023-06-10T07:27:09;26.15;;;16.13;;
77417;SDS011;66490;51.484;0.026;2023-06-10T07:29:53;22.67;;;12.07;;
77417;SDS011;66490;51.484;0.026;2023-06-10T07:32:45;28.50;;;14.93;;
77417;SDS011;66490;51.484;0.026;2023-06-10T07:35:39;24.43;;;14.93;;
77417;SDS011;66490;51.484;0.026;2023-06-10T07:38:32;24.05;;;11.75;;
77417;SDS011;66490;51.484;0.026;2023-06-10T07:41:26;17.75;;;10.52;;
77417;SDS011;66490;51.484;0.026;2023-06-10T07:44:11;23.88;;;11.00;;
77417;SDS011;66490;51.484;0.026;2023-06-10T07:46:55;23.20;;;11.50;;
77417;SDS011;66490;51.484;0.026;2023-06-10T07:49:44;18.03;;;11.23;;
77417;SDS011;66490;51.484;0.026;2023-06-10T07:52:31;17.85;;;10.93;;
77417;SDS011;66490;51.484;0.026;2023-06-10T07:58:19;21.80;;;11.50;;
77417;SDS011;66490;51.484;0.026;2023-06-10T08:01:10;20.50;;;13.45;;
77417;SDS011;66490;51.484;0.026;2023-06-10T08:03:57;21.03;;;13.37;;
77417;SDS011;66490;51.484;0.026;2023-06-10T08:06:54;22.60;;;13.23;;
77417;SDS011;66490;51.484;0.026;2023-06-10T08:13:14;22.40;;;13.10;;
77417;SDS011;66490;51.484;0.026;2023-06-10T08:19:56;21.63;;;13.27;;
77417;SDS011;66490;51.484;0.026;2023-06-10T08:22:59;23.65;;;13.43;;
77417;SDS011;66490;51.484;0.026;2023-06-10T08:26:07;24.65;;;13.32;;
77417;SDS011;66490;51.484;0.026;2023-06-10T08:28:51;21.88;;;13.40;;
77417;SDS011;66490;51.484;0.026;2023-06-10T08:31:57;21.88;;;14.73;;
77417;SDS011;66490;51.484;0.026;2023-06-10T08:34:51;22.87;;;13.53;;
77417;SDS011;66490;51.484;0.026;2023-06-10T08:37:37;26.05;;;12.27;;
77417;SDS011;66490;51.484;0.026;2023-06-10T08:40:33;23.55;;;14.05;;
77417;SDS011;66490;51.484;0.026;2023-06-10T08:47:08;17.60;;;13.30;;
77417;SDS011;66490;51.484;0.026;2023-06-10T08:57:12;21.90;;;14.50;;
77417;SDS011;66490;51.484;0.026;2023-06-10T09:00:26;22.33;;;13.57;;
77417;SDS011;66490;51.484;0.026;2023-06-10T09:07:06;21.03;;;13.37;;
77417;SDS011;66490;51.484;0.026;2023-06-10T09:17:18;20.70;;;12.10;;
77417;SDS011;66490;51.484;0.026;2023-06-10T09:27:29;20.17;;;13.88;;
77417;SDS011;66490;51.484;0.026;2023-06-10T09:37:12;20.35;;;14.05;;
77417;SDS011;66490;51.484;0.026;2023-06-10T09:40:17;21.80;;;13.83;;
77417;SDS011;66490;51.484;0.026;2023-06-10T09:43:38;16.55;;;13.60;;
77417;SDS011;66490;51.484;0.026;2023-06-10T09:50:15;14.98;;;12.82;;
77417;SDS011;66490;51.484;0.026;2023-06-10T10:13:06;14.67;;;11.50;;
77417;SDS011;66490;51.484;0.026;2023-06-10T10:26:11;18.73;;;10.65;;
77417;SDS011;66490;51.484;0.026;2023-06-10T10:28:59;14.10;;;9.67;;
77417;SDS011;66490;51.484;0.026;2023-06-10T10:31:50;15.65;;;9.02;;
77417;SDS011;66490;51.484;0.026;2023-06-10T10:38:21;14.00;;;8.95;;
77417;SDS011;66490;51.484;0.026;2023-06-10T10:41:11;11.00;;;7.95;;
77417;SDS011;66490;51.484;0.026;2023-06-10T10:47:10;14.38;;;8.25;;
77417;SDS011;66490;51.484;0.026;2023-06-10T10:50:00;10.63;;;8.88;;
77417;SDS011;66490;51.484;0.026;2023-06-10T10:56:07;10.75;;;8.48;;
77417;SDS011;66490;51.484;0.026;2023-06-10T10:59:05;11.90;;;8.47;;
77417;SDS011;66490;51.484;0.026;2023-06-10T11:02:06;11.20;;;8.38;;
77417;SDS011;66490;51.484;0.026;2023-06-10T11:04:51;13.50;;;9.02;;
77417;SDS011;66490;51.484;0.026;2023-06-10T11:07:36;11.68;;;8.57;;
77417;SDS011;66490;51.484;0.026;2023-06-10T11:10:21;12.65;;;8.38;;
77417;SDS011;66490;51.484;0.026;2023-06-10T11:13:19;11.03;;;7.20;;
77417;SDS011;66490;51.484;0.026;2023-06-10T11:16:08;14.20;;;7.50;;
77417;SDS011;66490;51.484;0.026;2023-06-10T11:18:54;12.35;;;8.68;;
77417;SDS011;66490;51.484;0.026;2023-06-10T11:21:57;14.13;;;8.73;;
77417;SDS011;66490;51.484;0.026;2023-06-10T11:24:49;11.90;;;9.73;;
77417;SDS011;66490;51.484;0.026;2023-06-10T11:27:37;11.17;;;8.20;;
77417;SDS011;66490;51.484;0.026;2023-06-10T11:30:25;11.23;;;8.57;;
77417;SDS011;66490;51.484;0.026;2023-06-10T11:33:18;12.73;;;8.88;;
77417;SDS011;66490;51.484;0.026;2023-06-10T11:36:33;10.70;;;7.88;;
77417;SDS011;66490;51.484;0.026;2023-06-10T11:39:19;12.45;;;8.32;;
77417;SDS011;66490;51.484;0.026;2023-06-10T11:42:03;15.17;;;7.90;;
77417;SDS011;66490;51.484;0.026;2023-06-10T11:44:52;10.65;;;7.15;;
77417;SDS011;66490;51.484;0.026;2023-06-10T11:47:59;9.07;;;7.65;;
77417;SDS011;66490;51.484;0.026;2023-06-10T11:50:44;13.70;;;7.82;;
77417;SDS011;66490;51.484;0.026;2023-06-10T11:53:28;10.93;;;7.93;;
77417;SDS011;66490;51.484;0.026;2023-06-10T11:56:15;11.53;;;7.57;;
77417;SDS011;66490;51.484;0.026;2023-06-10T11:59:03;9.80;;;8.02;;
77417;SDS011;66490;51.484;0.026;2023-06-10T12:05:19;14.05;;;8.50;;
77417;SDS011;66490;51.484;0.026;2023-06-10T12:08:12;11.27;;;8.40;;
77417;SDS011;66490;51.484;0.026;2023-06-10T12:10:56;12.43;;;7.47;;
77417;SDS011;66490;51.484;0.026;2023-06-10T12:14:04;10.75;;;7.72;;
77417;SDS011;66490;51.484;0.026;2023-06-10T12:17:08;13.10;;;8.38;;
77417;SDS011;66490;51.484;0.026;2023-06-10T12:20:06;11.05;;;7.88;;
77417;SDS011;66490;51.484;0.026;2023-06-10T12:22:55;12.32;;;8.50;;
77417;SDS011;66490;51.484;0.026;2023-06-10T12:25:52;10.37;;;7.23;;
77417;SDS011;66490;51.484;0.026;2023-06-10T12:28:39;11.65;;;7.90;;
77417;SDS011;66490;51.484;0.026;2023-06-10T12:34:37;9.85;;;7.55;;
77417;SDS011;66490;51.484;0.026;2023-06-10T12:37:24;8.65;;;7.43;;
77417;SDS011;66490;51.484;0.026;2023-06-10T12:40:10;14.93;;;8.10;;
77417;SDS011;66490;51.484;0.026;2023-06-10T12:42:58;10.27;;;6.90;;
77417;SDS011;66490;51.484;0.026;2023-06-10T12:45:43;10.57;;;7.25;;
77417;SDS011;66490;51.484;0.026;2023-06-10T12:48:32;9.95;;;6.82;;
77417;SDS011;66490;51.484;0.026;2023-06-10T12:51:25;9.57;;;7.25;;
77417;SDS011;66490;51.484;0.026;2023-06-10T12:54:17;9.07;;;6.97;;
77417;SDS011;66490;51.484;0.026;2023-06-10T12:57:01;10.73;;;7.55;;
77417;SDS011;66490;51.484;0.026;2023-06-10T12:59:55;10.15;;;8.10;;
77417;SDS011;66490;51.484;0.026;2023-06-10T13:02:48;10.73;;;7.47;;
77417;SDS011;66490;51.484;0.026;2023-06-10T13:05:35;9.35;;;8.27;;
77417;SDS011;66490;51.484;0.026;2023-06-10T13:08:21;10.60;;;7.07;;
77417;SDS011;66490;51.484;0.026;2023-06-10T13:11:05;12.32;;;7.35;;
77417;SDS011;66490;51.484;0.026;2023-06-10T13:13:49;10.48;;;7.22;;
77417;SDS011;66490;51.484;0.026;2023-06-10T13:16:36;11.32;;;6.13;;
77417;SDS011;66490;51.484;0.026;2023-06-10T13:19:23;11.07;;;7.07;;
77417;SDS011;66490;51.484;0.026;2023-06-10T13:22:18;9.43;;;6.60;;
77417;SDS011;66490;51.484;0.026;2023-06-10T13:25:04;8.80;;;7.35;;
77417;SDS011;66490;51.484;0.026;2023-06-10T13:27:51;8.15;;;6.78;;
77417;SDS011;66490;51.484;0.026;2023-06-10T13:30:46;8.75;;;6.93;;
77417;SDS011;66490;51.484;0.026;2023-06-10T13:33:35;8.40;;;6.90;;
77417;SDS011;66490;51.484;0.026;2023-06-10T13:36:22;8.60;;;6.37;;
77417;SDS011;66490;51.484;0.026;2023-06-10T13:39:06;9.90;;;7.03;;
77417;SDS011;66490;51.484;0.026;2023-06-10T13:41:52;9.85;;;7.20;;
77417;SDS011;66490;51.484;0.026;2023-06-10T13:44:37;9.20;;;7.32;;
77417;SDS011;66490;51.484;0.026;2023-06-10T13:47:26;10.88;;;8.88;;
77417;SDS011;66490;51.484;0.026;2023-06-10T13:50:13;9.77;;;8.10;;
77417;SDS011;66490;51.484;0.026;2023-06-10T13:52:57;11.10;;;8.90;;
77417;SDS011;66490;51.484;0.026;2023-06-10T13:55:47;11.90;;;9.98;;
77417;SDS011;66490;51.484;0.026;2023-06-10T13:58:31;10.93;;;9.50;;
77417;SDS011;66490;51.484;0.026;2023-06-10T14:01:15;9.90;;;8.88;;
77417;SDS011;66490;51.484;0.026;2023-06-10T14:03:59;11.27;;;9.93;;
77417;SDS011;66490;51.484;0.026;2023-06-10T14:06:47;11.18;;;9.00;;
77417;SDS011;66490;51.484;0.026;2023-06-10T14:09:37;13.80;;;10.50;;
77417;SDS011;66490;51.484;0.026;2023-06-10T14:12:25;12.63;;;10.88;;
77417;SDS011;66490;51.484;0.026;2023-06-10T14:15:09;14.02;;;10.38;;
77417;SDS011;66490;51.484;0.026;2023-06-10T14:17:54;13.97;;;9.50;;
77417;SDS011;66490;51.484;0.026;2023-06-10T14:20:39;11.50;;;9.45;;
77417;SDS011;66490;51.484;0.026;2023-06-10T14:23:25;11.77;;;9.27;;
77417;SDS011;66490;51.484;0.026;2023-06-10T14:26:15;12.15;;;9.13;;
77417;SDS011;66490;51.484;0.026;2023-06-10T14:29:06;13.82;;;9.45;;
77417;SDS011;66490;51.484;0.026;2023-06-10T14:31:53;11.87;;;9.93;;
77417;SDS011;66490;51.484;0.026;2023-06-10T14:34:37;12.13;;;9.93;;
77417;SDS011;66490;51.484;0.026;2023-06-10T14:37:24;11.82;;;9.50;;
77417;SDS011;66490;51.484;0.026;2023-06-10T14:40:11;12.32;;;10.35;;
77417;SDS011;66490;51.484;0.026;2023-06-10T14:43:05;12.30;;;10.25;;
77417;SDS011;66490;51.484;0.026;2023-06-10T14:45:55;12.33;;;9.27;;
77417;SDS011;66490;51.484;0.026;2023-06-10T14:48:41;13.45;;;9.82;;
77417;SDS011;66490;51.484;0.026;2023-06-10T14:51:25;12.10;;;9.75;;
77417;SDS011;66490;51.484;0.026;2023-06-10T14:54:09;15.35;;;10.48;;
77417;SDS011;66490;51.484;0.026;2023-06-10T14:56:57;13.38;;;11.32;;
77417;SDS011;66490;51.484;0.026;2023-06-10T14:59:41;14.27;;;10.53;;
77417;SDS011;66490;51.484;0.026;2023-06-10T15:02:28;15.45;;;10.85;;
77417;SDS011;66490;51.484;0.026;2023-06-10T15:05:18;14.05;;;10.35;;
77417;SDS011;66490;51.484;0.026;2023-06-10T15:08:04;14.57;;;9.77;;
77417;SDS011;66490;51.484;0.026;2023-06-10T15:10:49;11.65;;;9.73;;
77417;SDS011;66490;51.484;0.026;2023-06-10T15:13:39;14.63;;;9.70;;
77417;SDS011;66490;51.484;0.026;2023-06-10T15:16:25;12.88;;;10.25;;
77417;SDS011;66490;51.484;0.026;2023-06-10T15:19:09;12.27;;;10.70;;
77417;SDS011;66490;51.484;0.026;2023-06-10T15:21:56;13.35;;;10.48;;
77417;SDS011;66490;51.484;0.026;2023-06-10T15:24:40;11.73;;;9.68;;
77417;SDS011;66490;51.484;0.026;2023-06-10T15:27:24;13.53;;;10.00;;
77417;SDS011;66490;51.484;0.026;2023-06-10T15:30:17;13.77;;;9.90;;
77417;SDS011;66490;51.484;0.026;2023-06-10T15:33:03;12.20;;;9.85;;
77417;SDS011;66490;51.484;0.026;2023-06-10T15:35:50;12.05;;;9.55;;
77417;SDS011;66490;51.484;0.026;2023-06-10T15:38:36;13.65;;;10.07;;
77417;SDS011;66490;51.484;0.026;2023-06-10T15:41:36;13.70;;;9.93;;
77417;SDS011;66490;51.484;0.026;2023-06-10T15:44:20;13.50;;;10.05;;
77417;SDS011;66490;51.484;0.026;2023-06-10T15:47:12;13.35;;;10.00;;
77417;SDS011;66490;51.484;0.026;2023-06-10T15:49:56;11.98;;;9.52;;
77417;SDS011;66490;51.484;0.026;2023-06-10T15:52:40;12.15;;;8.88;;
77417;SDS011;66490;51.484;0.026;2023-06-10T15:55:27;12.60;;;9.17;;
77417;SDS011;66490;51.484;0.026;2023-06-10T15:58:13;11.80;;;9.32;;
77417;SDS011;66490;51.484;0.026;2023-06-10T16:01:15;10.98;;;9.73;;
77417;SDS011;66490;51.484;0.026;2023-06-10T16:03:59;11.85;;;9.55;;
77417;SDS011;66490;51.484;0.026;2023-06-10T16:06:43;12.68;;;9.20;;
77417;SDS011;66490;51.484;0.026;2023-06-10T16:09:35;14.20;;;9.57;;
77417;SDS011;66490;51.484;0.026;2023-06-10T16:12:18;11.57;;;9.95;;
77417;SDS011;66490;51.484;0.026;2023-06-10T16:15:14;13.15;;;10.48;;
77417;SDS011;66490;51.484;0.026;2023-06-10T16:18:06;11.90;;;9.40;;
77417;SDS011;66490;51.484;0.026;2023-06-10T16:21:13;11.77;;;10.52;;
77417;SDS011;66490;51.484;0.026;2023-06-10T16:24:01;12.43;;;10.17;;
77417;SDS011;66490;51.484;0.026;2023-06-10T16:26:45;11.18;;;8.77;;
77417;SDS011;66490;51.484;0.026;2023-06-10T16:29:34;11.88;;;10.13;;
77417;SDS011;66490;51.484;0.026;2023-06-10T16:32:20;11.48;;;9.48;;
77417;SDS011;66490;51.484;0.026;2023-06-10T16:35:04;10.60;;;9.40;;
77417;SDS011;66490;51.484;0.026;2023-06-10T16:37:49;11.20;;;9.00;;
77417;SDS011;66490;51.484;0.026;2023-06-10T16:48:36;13.27;;;9.77;;
77417;SDS011;66490;51.484;0.026;2023-06-10T16:51:28;13.90;;;10.80;;
77417;SDS011;66490;51.484;0.026;2023-06-10T16:54:15;12.60;;;9.35;;
77417;SDS011;66490;51.484;0.026;2023-06-10T16:57:02;13.35;;;9.95;;
77417;SDS011;66490;51.484;0.026;2023-06-10T16:59:46;13.05;;;9.52;;
77417;SDS011;66490;51.484;0.026;2023-06-10T17:02:51;13.82;;;10.07;;
77417;SDS011;66490;51.484;0.026;2023-06-10T17:05:35;14.77;;;9.20;;
77417;SDS011;66490;51.484;0.026;2023-06-10T17:08:40;11.20;;;9.20;;
77417;SDS011;66490;51.484;0.026;2023-06-10T17:11:24;13.52;;;9.82;;
77417;SDS011;66490;51.484;0.026;2023-06-10T17:14:08;15.40;;;9.93;;
77417;SDS011;66490;51.484;0.026;2023-06-10T17:20:26;13.07;;;10.43;;
77417;SDS011;66490;51.484;0.026;2023-06-10T17:23:19;13.40;;;9.70;;
77417;SDS011;66490;51.484;0.026;2023-06-10T17:26:21;14.63;;;10.10;;
77417;SDS011;66490;51.484;0.026;2023-06-10T17:29:26;16.02;;;12.07;;
77417;SDS011;66490;51.484;0.026;2023-06-10T17:32:14;12.63;;;10.35;;
77417;SDS011;66490;51.484;0.026;2023-06-10T17:35:10;16.77;;;10.73;;
77417;SDS011;66490;51.484;0.026;2023-06-10T17:38:05;16.55;;;10.38;;
77417;SDS011;66490;51.484;0.026;2023-06-10T17:40:50;12.60;;;10.25;;
77417;SDS011;66490;51.484;0.026;2023-06-10T17:43:39;13.55;;;9.80;;
77417;SDS011;66490;51.484;0.026;2023-06-10T17:46:32;13.15;;;10.07;;
77417;SDS011;66490;51.484;0.026;2023-06-10T17:49:28;13.30;;;9.83;;
77417;SDS011;66490;51.484;0.026;2023-06-10T17:52:17;12.35;;;9.27;;
77417;SDS011;66490;51.484;0.026;2023-06-10T17:55:05;14.65;;;9.70;;
77417;SDS011;66490;51.484;0.026;2023-06-10T18:11:16;10.65;;;8.50;;
77417;SDS011;66490;51.484;0.026;2023-06-10T18:16:50;15.30;;;8.80;;
77417;SDS011;66490;51.484;0.026;2023-06-10T18:19:37;12.45;;;8.15;;
77417;SDS011;66490;51.484;0.026;2023-06-10T18:22:29;14.77;;;9.07;;
77417;SDS011;66490;51.484;0.026;2023-06-10T18:25:41;14.98;;;9.15;;
77417;SDS011;66490;51.484;0.026;2023-06-10T18:28:25;13.98;;;9.27;;
77417;SDS011;66490;51.484;0.026;2023-06-10T18:31:35;16.30;;;8.80;;
77417;SDS011;66490;51.484;0.026;2023-06-10T18:34:40;12.35;;;8.13;;
77417;SDS011;66490;51.484;0.026;2023-06-10T18:37:27;11.70;;;9.00;;
77417;SDS011;66490;51.484;0.026;2023-06-10T18:40:22;11.70;;;7.80;;